Time;durP1;ratioP1;P1;durP2;ratioP2;P2;SDS_P1;SDS_P2;PMS_P1;PMS_P2;Temp;Humidity;BMP_temperature;BMP_pressure;BME280_temperature;BME280_humidity;BME280_pressure;Samples;Min_cycle;Max_cycle;Signal;HPM_P1;HPM_P2
2022/11/10 00:00:13;;;;;;;10.85;1.80;;;14.50;95.30;;;;;;5071381;28;20469;-70
2022/11/10 00:02:42;;;;;;;9.77;1.73;;;14.50;95.20;;;;;;5072182;28;20040;-69
2022/11/10 00:05:12;;;;;;;10.20;1.90;;;14.40;95.20;;;;;;5070369;28;20517;-70
2022/11/10 00:07:38;;;;;;;9.02;2.08;;;14.40;95.40;;;;;;5072616;28;20051;-70
2022/11/10 00:10:05;;;;;;;20.02;1.98;;;14.50;95.20;;;;;;5071367;28;20429;-70
2022/11/10 00:12:32;;;;;;;7.70;1.73;;;14.50;95.20;;;;;;5071259;28;20119;-70
2022/11/10 00:17:42;;;;;;;10.55;2.13;;;14.30;95.50;;;;;;5071086;28;20049;-70
2022/11/10 00:20:08;;;;;;;7.38;1.58;;;14.20;95.60;;;;;;5071015;28;20028;-70
2022/11/10 00:22:35;;;;;;;7.75;1.77;;;14.20;95.60;;;;;;5071338;28;20051;-71
2022/11/10 00:25:00;;;;;;;7.72;1.83;;;14.10;95.70;;;;;;5053432;28;20040;-72
2022/11/10 00:27:26;;;;;;;9.63;1.83;;;14.20;95.70;;;;;;5071447;28;20024;-70
2022/11/10 00:29:52;;;;;;;8.90;1.75;;;14.30;95.70;;;;;;5071528;28;20447;-71
2022/11/10 00:32:18;;;;;;;6.47;1.77;;;14.20;95.70;;;;;;5071454;28;20032;-70
2022/11/10 00:34:44;;;;;;;7.03;1.90;;;14.30;95.40;;;;;;5071337;28;20400;-71
2022/11/10 00:37:09;;;;;;;6.93;1.55;;;14.30;95.40;;;;;;5071057;28;20576;-70
2022/11/10 00:39:35;;;;;;;13.65;2.28;;;14.30;95.40;;;;;;5071178;28;20037;-72
2022/11/10 00:42:01;;;;;;;10.88;2.28;;;14.30;95.60;;;;;;5070825;28;20385;-73
2022/11/10 00:44:27;;;;;;;9.75;2.08;;;14.40;95.40;;;;;;5071495;28;20466;-71
2022/11/10 00:46:52;;;;;;;6.97;1.90;;;14.50;95.70;;;;;;5071081;28;20037;-72
2022/11/10 00:49:18;;;;;;;8.63;1.88;;;14.50;95.30;;;;;;5071165;28;20483;-72
2022/11/10 00:51:44;;;;;;;7.75;2.03;;;14.40;95.30;;;;;;5070863;28;20039;-72
2022/11/10 00:54:09;;;;;;;9.90;2.03;;;14.40;95.50;;;;;;5070845;28;20443;-71
2022/11/10 00:56:35;;;;;;;10.02;2.00;;;14.30;95.60;;;;;;5071165;28;20064;-70
2022/11/10 00:59:01;;;;;;;8.68;2.00;;;14.20;95.70;;;;;;5071116;28;20025;-72
2022/11/10 01:01:26;;;;;;;8.57;3.05;;;14.10;96.10;;;;;;5069583;28;20458;-71
2022/11/10 01:03:53;;;;;;;70.35;35.70;;;14.30;95.70;;;;;;5070715;28;20358;-71
2022/11/10 01:06:19;;;;;;;24.50;7.93;;;14.20;95.90;;;;;;5070576;28;20113;-70
2022/11/10 01:08:45;;;;;;;11.38;2.60;;;14.30;95.70;;;;;;5071458;28;20123;-70
2022/11/10 01:11:18;;;;;;;5.32;1.75;;;14.20;95.90;;;;;;5071923;28;20060;-70
2022/11/10 01:13:45;;;;;;;13.20;2.47;;;14.20;96.00;;;;;;5070631;28;20120;-71
2022/11/10 01:16:19;;;;;;;6.32;1.80;;;14.20;96.00;;;;;;5070425;28;20037;-69
2022/11/10 01:18:52;;;;;;;8.40;2.20;;;14.10;96.00;;;;;;5052878;28;20032;-72
2022/11/10 01:21:19;;;;;;;10.85;3.03;;;14.20;96.20;;;;;;5053035;28;20522;-71
2022/11/10 01:23:46;;;;;;;9.73;2.50;;;14.30;95.90;;;;;;5071231;28;20043;-70
2022/11/10 01:26:13;;;;;;;9.70;2.20;;;14.20;96.00;;;;;;5070809;28;20025;-71
2022/11/10 01:28:38;;;;;;;12.65;2.50;;;14.30;95.80;;;;;;5070481;28;20033;-71
2022/11/10 01:31:07;;;;;;;10.07;2.22;;;14.30;95.90;;;;;;5069762;28;20420;-71
2022/11/10 01:33:33;;;;;;;11.30;2.80;;;14.10;96.10;;;;;;5072948;28;20466;-70
2022/11/10 01:35:59;;;;;;;13.88;2.80;;;14.20;96.00;;;;;;5056976;28;20035;-70
2022/11/10 01:38:30;;;;;;;11.90;2.17;;;14.00;96.30;;;;;;5056807;28;20037;-71
2022/11/10 01:40:56;;;;;;;11.93;2.58;;;14.10;96.30;;;;;;5056208;28;20470;-71
2022/11/10 01:43:22;;;;;;;10.30;3.17;;;14.10;96.30;;;;;;5074125;28;20467;-70
2022/11/10 01:45:55;;;;;;;11.00;2.50;;;14.10;96.40;;;;;;5073995;28;20021;-69
2022/11/10 01:48:20;;;;;;;13.02;3.00;;;14.00;96.50;;;;;;5056872;28;20024;-70
2022/11/10 01:50:47;;;;;;;12.40;2.90;;;13.90;96.70;;;;;;5077399;28;20086;-70
2022/11/10 01:53:22;;;;;;;16.63;3.25;;;13.70;96.90;;;;;;5076724;28;20556;-71
2022/11/10 01:55:49;;;;;;;15.32;2.85;;;13.90;96.90;;;;;;5056337;28;20162;-73
2022/11/10 01:58:19;;;;;;;9.38;2.80;;;13.80;96.90;;;;;;5073012;28;20029;-70
2022/11/10 02:00:45;;;;;;;12.10;3.20;;;13.80;97.00;;;;;;5075739;28;20029;-71
2022/11/10 02:03:26;;;;;;;13.15;2.95;;;13.80;97.00;;;;;;5072758;28;20021;-71
2022/11/10 02:05:51;;;;;;;11.52;3.63;;;13.70;97.10;;;;;;5075801;28;20137;-71
2022/11/10 02:08:18;;;;;;;11.98;2.97;;;13.80;97.00;;;;;;5074786;28;20584;-71
2022/11/10 02:10:44;;;;;;;10.43;3.03;;;13.90;96.90;;;;;;5073528;28;20036;-71
2022/11/10 02:13:10;;;;;;;15.13;3.33;;;13.70;97.10;;;;;;5073792;28;20028;-71
2022/11/10 02:15:36;;;;;;;10.98;2.92;;;13.90;96.90;;;;;;5074166;28;20032;-71
2022/11/10 02:18:02;;;;;;;13.95;3.53;;;13.80;96.90;;;;;;5073865;28;20020;-73
2022/11/10 02:20:29;;;;;;;9.95;3.22;;;13.80;97.00;;;;;;5056622;28;20438;-72
2022/11/10 02:22:55;;;;;;;16.17;3.55;;;13.70;97.10;;;;;;5076123;28;20355;-72
2022/11/10 02:25:23;;;;;;;13.38;3.70;;;13.70;97.20;;;;;;5072568;28;20119;-71
2022/11/10 02:27:48;;;;;;;8.32;2.97;;;13.60;97.30;;;;;;5074204;28;20032;-71
2022/11/10 02:30:14;;;;;;;13.00;3.45;;;13.70;97.20;;;;;;5057122;28;20077;-71
2022/11/10 02:32:40;;;;;;;26.98;4.43;;;13.70;97.10;;;;;;5078428;28;20481;-72
2022/11/10 02:35:06;;;;;;;15.80;4.03;;;13.70;97.20;;;;;;5077890;28;20047;-72
2022/11/10 02:37:32;;;;;;;17.90;4.15;;;13.70;97.20;;;;;;5096746;28;20036;-71
2022/11/10 02:39:57;;;;;;;9.73;3.65;;;13.70;97.30;;;;;;5099330;28;20036;-72
2022/11/10 02:42:23;;;;;;;16.35;4.03;;;13.70;97.20;;;;;;5093952;28;20366;-71
2022/11/10 02:44:49;;;;;;;10.63;3.50;;;13.70;97.20;;;;;;5093748;28;20115;-72
2022/11/10 02:47:15;;;;;;;8.95;3.25;;;13.70;97.40;;;;;;5093499;28;20469;-71
2022/11/10 02:49:40;;;;;;;15.85;4.50;;;13.70;97.50;;;;;;5078125;28;20028;-72
2022/11/10 02:52:06;;;;;;;12.57;3.85;;;13.60;97.50;;;;;;5096555;28;20020;-72
2022/11/10 02:54:31;;;;;;;18.63;4.53;;;13.70;97.40;;;;;;5093776;28;20130;-71
2022/11/10 02:56:57;;;;;;;12.07;4.03;;;13.70;97.40;;;;;;5096991;28;20024;-72
2022/11/10 02:59:23;;;;;;;18.25;3.83;;;13.70;97.40;;;;;;5094671;28;20028;-71
2022/11/10 03:01:48;;;;;;;12.38;3.50;;;13.70;97.20;;;;;;5094796;28;20043;-72
2022/11/10 03:04:14;;;;;;;13.73;3.85;;;13.70;97.20;;;;;;5094043;28;20078;-73
2022/11/10 03:06:40;;;;;;;16.63;3.58;;;13.70;97.20;;;;;;5074955;28;20039;-72
2022/11/10 03:09:05;;;;;;;14.27;3.50;;;13.70;97.20;;;;;;5092720;28;20524;-71
2022/11/10 03:11:31;;;;;;;11.70;3.72;;;13.70;97.30;;;;;;5075295;28;20046;-71
2022/11/10 03:13:56;;;;;;;11.02;3.70;;;13.70;97.10;;;;;;5092624;28;20028;-71
2022/11/10 03:16:22;;;;;;;12.90;3.42;;;13.70;97.20;;;;;;5074547;28;20121;-72
2022/11/10 03:18:48;;;;;;;15.10;3.88;;;13.70;97.00;;;;;;5092623;28;20028;-72
2022/11/10 03:21:13;;;;;;;20.13;4.20;;;13.70;97.20;;;;;;5077986;28;20035;-71
2022/11/10 03:23:39;;;;;;;15.75;3.90;;;13.60;97.10;;;;;;5097175;28;20024;-74
2022/11/10 03:26:06;;;;;;;13.50;3.47;;;13.60;97.20;;;;;;5098699;28;20384;-71
2022/11/10 03:28:32;;;;;;;17.35;4.15;;;13.60;97.20;;;;;;5099136;28;20058;-72
2022/11/10 03:30:58;;;;;;;16.35;4.25;;;13.60;97.30;;;;;;5098004;28;20138;-73
2022/11/10 03:33:23;;;;;;;12.75;4.05;;;13.50;97.50;;;;;;5105125;28;20040;-71
2022/11/10 03:35:49;;;;;;;16.15;3.88;;;13.50;97.60;;;;;;5102403;28;20035;-74
2022/11/10 03:38:15;;;;;;;17.05;4.38;;;13.50;97.60;;;;;;5078314;28;20032;-72
2022/11/10 03:40:40;;;;;;;15.45;4.10;;;13.40;97.80;;;;;;5080268;28;20020;-72
2022/11/10 03:43:06;;;;;;;14.00;3.92;;;13.40;97.60;;;;;;5101713;28;20104;-73
2022/11/10 03:45:32;;;;;;;11.23;4.00;;;13.40;97.70;;;;;;5103496;28;20061;-71
2022/11/10 03:47:57;;;;;;;9.80;3.63;;;13.50;97.50;;;;;;5104670;28;20012;-71
2022/11/10 03:50:23;;;;;;;11.68;4.15;;;13.40;97.60;;;;;;5088799;28;20040;-71
2022/11/10 03:52:49;;;;;;;14.38;4.50;;;13.40;97.70;;;;;;5107686;28;20063;-70
2022/11/10 03:55:17;;;;;;;11.10;4.40;;;13.40;97.60;;;;;;5098636;28;20035;-71
2022/11/10 03:57:42;;;;;;;;;;;13.40;97.90;;;;;;5074483;28;20036;-70
2022/11/10 04:00:09;;;;;;;16.48;4.28;;;13.40;97.70;;;;;;5092764;28;20329;-71
2022/11/10 04:02:36;;;;;;;12.30;4.50;;;13.30;97.90;;;;;;5093010;28;20020;-71
2022/11/10 04:10:35;;;;;;;13.48;5.25;;;13.20;98.30;;;;;;5091731;28;20061;-73
2022/11/10 04:15:44;;;;;;;12.73;5.22;;;13.20;98.10;;;;;;5091449;28;20046;-72
2022/11/10 04:18:23;;;;;;;10.32;4.80;;;13.30;98.30;;;;;;5091549;28;20039;-72
2022/11/10 04:20:54;;;;;;;11.60;4.70;;;13.30;98.10;;;;;;5091967;28;20028;-73
2022/11/10 04:23:34;;;;;;;11.93;4.88;;;13.30;98.00;;;;;;5073481;28;20028;-73
2022/11/10 04:28:48;;;;;;;18.33;5.45;;;13.30;97.90;;;;;;5091300;28;20554;-73
2022/11/10 04:31:16;;;;;;;16.88;4.75;;;13.30;97.80;;;;;;5091280;28;20089;-70
2022/11/10 04:33:42;;;;;;;21.23;5.82;;;13.30;98.00;;;;;;5073643;28;20039;-71
2022/11/10 04:36:11;;;;;;;15.35;5.63;;;13.30;97.90;;;;;;5091530;28;20031;-72
2022/11/10 04:38:37;;;;;;;20.17;5.32;;;13.30;98.00;;;;;;5091638;28;20244;-72
2022/11/10 04:41:03;;;;;;;10.18;4.93;;;13.30;97.90;;;;;;5091067;28;20035;-73
2022/11/10 04:43:29;;;;;;;15.77;5.38;;;13.30;97.80;;;;;;5091298;28;20028;-72
2022/11/10 04:45:55;;;;;;;20.92;6.00;;;13.30;97.80;;;;;;5093556;28;20032;-74
2022/11/10 04:48:21;;;;;;;19.08;5.28;;;13.30;97.80;;;;;;5091914;28;20024;-73
2022/11/10 04:50:47;;;;;;;17.50;5.72;;;13.30;98.10;;;;;;5092236;28;20023;-72
2022/11/10 04:53:12;;;;;;;18.92;5.70;;;13.30;97.80;;;;;;5092117;28;20112;-73
2022/11/10 04:55:40;;;;;;;20.42;5.75;;;13.20;98.10;;;;;;5073128;28;20497;-72
2022/11/10 04:58:06;;;;;;;21.10;6.10;;;13.20;98.20;;;;;;5090850;28;20032;-73
2022/11/10 05:00:32;;;;;;;18.05;5.53;;;13.20;98.20;;;;;;5091029;28;20017;-72
2022/11/10 05:03:03;;;;;;;15.68;5.07;;;13.20;98.40;;;;;;5073452;28;20028;-73
2022/11/10 05:05:29;;;;;;;17.15;6.18;;;13.20;98.10;;;;;;5073081;28;20043;-72
2022/11/10 05:07:55;;;;;;;13.90;5.93;;;13.10;98.40;;;;;;5092589;28;20527;-71
2022/11/10 05:10:21;;;;;;;22.55;6.97;;;13.00;98.60;;;;;;5094903;28;20175;-70
2022/11/10 05:12:47;;;;;;;20.30;6.35;;;13.10;98.70;;;;;;5095314;28;20381;-71
2022/11/10 05:15:12;;;;;;;18.20;5.65;;;13.00;98.90;;;;;;5076948;28;20035;-71
2022/11/10 05:17:38;;;;;;;22.35;6.57;;;13.10;98.70;;;;;;5095418;28;20031;-74
2022/11/10 05:20:05;;;;;;;14.30;5.70;;;13.10;98.70;;;;;;5076717;28;20028;-72
2022/11/10 05:22:31;;;;;;;15.18;7.07;;;13.10;98.50;;;;;;5094801;28;20047;-72
2022/11/10 05:24:56;;;;;;;15.77;6.10;;;12.90;98.90;;;;;;5094661;28;20377;-72
2022/11/10 05:27:22;;;;;;;19.00;6.50;;;13.00;99.00;;;;;;5094582;28;20024;-71
2022/11/10 05:29:47;;;;;;;18.23;7.90;;;13.10;98.90;;;;;;5095097;28;20024;-72
2022/11/10 05:32:13;;;;;;;17.40;6.82;;;13.00;99.00;;;;;;5094498;28;20020;-72
2022/11/10 05:34:39;;;;;;;20.50;7.10;;;13.10;98.80;;;;;;5094504;28;20024;-73
2022/11/10 05:37:05;;;;;;;15.60;7.15;;;13.00;98.90;;;;;;5094373;28;20377;-71
2022/11/10 05:39:30;;;;;;;17.70;7.07;;;13.10;98.80;;;;;;5094543;28;20304;-73
2022/11/10 05:41:56;;;;;;;15.07;7.38;;;13.00;99.00;;;;;;5076643;28;20131;-73
2022/11/10 05:44:22;;;;;;;20.33;8.55;;;12.90;99.40;;;;;;5094328;28;20047;-71
2022/11/10 05:46:47;;;;;;;17.85;7.70;;;12.90;99.70;;;;;;5076778;28;20066;-72
2022/11/10 05:49:13;;;;;;;20.00;7.38;;;12.90;99.40;;;;;;5094198;28;20518;-72
2022/11/10 05:51:38;;;;;;;23.98;7.32;;;13.00;99.20;;;;;;5094203;28;20031;-74
2022/11/10 05:54:04;;;;;;;15.23;7.43;;;13.00;99.30;;;;;;5094018;28;20319;-70
2022/11/10 05:56:30;;;;;;;15.68;7.28;;;13.10;99.30;;;;;;5076529;28;20027;-72
2022/11/10 05:58:56;;;;;;;19.52;8.38;;;13.10;99.00;;;;;;5076200;28;20111;-71
2022/11/10 06:01:21;;;;;;;13.48;7.82;;;13.10;99.20;;;;;;5093864;28;20103;-73
2022/11/10 06:03:47;;;;;;;15.15;7.88;;;13.20;99.00;;;;;;5094063;28;20438;-72
2022/11/10 06:06:13;;;;;;;12.80;6.97;;;13.20;99.10;;;;;;5094583;28;20454;-72
2022/11/10 06:08:38;;;;;;;13.52;6.53;;;13.20;99.20;;;;;;5094545;28;20020;-73
2022/11/10 06:11:04;;;;;;;18.70;7.55;;;13.20;99.00;;;;;;5093962;28;20115;-71
2022/11/10 06:13:30;;;;;;;29.13;7.78;;;13.20;98.90;;;;;;5093791;28;20066;-72
2022/11/10 06:15:55;;;;;;;20.77;8.93;;;13.20;99.00;;;;;;5076324;28;20032;-73
2022/11/10 06:18:21;;;;;;;17.77;7.55;;;13.30;99.00;;;;;;5093130;28;20062;-72
2022/11/10 06:20:47;;;;;;;11.75;7.50;;;13.20;99.40;;;;;;5094096;28;20530;-72
2022/11/10 06:23:13;;;;;;;16.70;7.05;;;13.20;99.10;;;;;;5093705;28;20020;-73
2022/11/10 06:25:40;;;;;;;20.80;7.70;;;13.20;99.20;;;;;;5093636;28;20048;-71
2022/11/10 06:28:07;;;;;;;18.67;7.68;;;13.20;99.10;;;;;;5075671;28;20066;-71
2022/11/10 06:30:35;;;;;;;15.30;7.90;;;13.30;99.00;;;;;;5093666;28;20034;-73
2022/11/10 06:33:01;;;;;;;19.48;7.10;;;13.30;99.00;;;;;;5093381;28;20020;-72
2022/11/10 06:35:27;;;;;;;21.33;7.32;;;13.30;99.00;;;;;;5094141;28;20024;-71
2022/11/10 06:38:05;;;;;;;19.10;7.45;;;13.30;98.90;;;;;;5075375;28;20052;-73
2022/11/10 06:40:31;;;;;;;16.85;7.13;;;13.30;99.10;;;;;;5074903;28;20044;-72
2022/11/10 06:42:58;;;;;;;23.98;7.00;;;13.30;99.10;;;;;;5093308;28;20056;-72
2022/11/10 06:45:24;;;;;;;15.48;7.47;;;13.30;98.90;;;;;;5075536;28;20055;-71
2022/11/10 06:48:03;;;;;;;20.00;6.68;;;13.30;98.80;;;;;;5094176;28;20365;-72
2022/11/10 06:50:30;;;;;;;24.13;7.40;;;13.30;99.00;;;;;;5093428;28;20028;-72
2022/11/10 06:52:56;;;;;;;13.48;6.70;;;13.40;99.00;;;;;;5093408;28;20028;-72
2022/11/10 06:55:23;;;;;;;19.98;6.57;;;13.30;99.10;;;;;;5093183;28;20085;-72
2022/11/10 06:57:48;;;;;;;15.70;6.47;;;13.30;99.20;;;;;;5092854;28;20546;-72
2022/11/10 07:00:15;;;;;;;16.05;7.03;;;13.30;99.10;;;;;;5092938;28;20032;-71
2022/11/10 07:02:40;;;;;;;17.35;6.55;;;13.30;99.00;;;;;;5093503;28;20020;-73
2022/11/10 07:05:06;;;;;;;25.75;7.43;;;13.30;99.10;;;;;;5093153;28;20089;-73
2022/11/10 07:07:32;;;;;;;23.35;7.38;;;13.30;99.10;;;;;;5092855;28;20040;-72
2022/11/10 07:09:58;;;;;;;21.23;7.65;;;13.20;99.30;;;;;;5092921;28;20032;-75
2022/11/10 07:12:24;;;;;;;14.73;6.80;;;13.10;99.40;;;;;;5092439;28;20028;-73
2022/11/10 07:14:49;;;;;;;19.63;7.85;;;13.30;99.40;;;;;;5093324;28;20023;-74
2022/11/10 07:17:15;;;;;;;20.65;7.18;;;13.20;99.50;;;;;;5092800;28;20028;-74
2022/11/10 07:19:41;;;;;;;20.65;8.15;;;13.30;99.40;;;;;;5094303;28;20043;-72
2022/11/10 07:22:07;;;;;;;16.13;6.93;;;13.40;99.20;;;;;;5092847;28;20029;-73
2022/11/10 07:24:33;;;;;;;21.95;7.93;;;13.40;99.20;;;;;;5074820;28;20036;-69
2022/11/10 07:26:59;;;;;;;17.80;6.63;;;13.40;99.30;;;;;;5075200;28;20420;-70
2022/11/10 07:29:25;;;;;;;19.85;7.18;;;13.40;99.30;;;;;;5092416;28;20032;-71
2022/11/10 07:31:51;;;;;;;25.20;8.30;;;13.50;99.30;;;;;;5091413;28;20492;-70
2022/11/10 07:34:17;;;;;;;22.02;7.88;;;13.50;99.50;;;;;;5073805;28;20097;-69
2022/11/10 07:36:43;;;;;;;21.88;7.43;;;13.60;99.50;;;;;;5092184;28;20408;-71
2022/11/10 07:39:10;;;;;;;21.50;7.15;;;13.50;99.70;;;;;;5092455;28;20399;-71
2022/11/10 07:41:36;;;;;;;22.55;7.70;;;13.50;99.70;;;;;;5092406;28;20464;-71
2022/11/10 07:44:01;;;;;;;22.88;7.90;;;13.60;99.50;;;;;;5092007;28;20052;-71
2022/11/10 07:46:28;;;;;;;25.00;7.53;;;13.60;99.40;;;;;;5091710;28;20039;-71
2022/11/10 07:48:53;;;;;;;23.38;8.40;;;13.70;99.50;;;;;;5073921;28;20464;-70
2022/11/10 07:51:19;;;;;;;28.67;8.10;;;13.70;99.30;;;;;;5091760;28;20092;-70
2022/11/10 07:53:45;;;;;;;21.83;6.75;;;13.80;99.30;;;;;;5093726;28;20055;-70
2022/11/10 07:56:10;;;;;;;19.05;7.07;;;13.80;99.40;;;;;;5092981;28;20224;-71
2022/11/10 07:58:36;;;;;;;19.42;6.60;;;13.90;99.40;;;;;;5075072;28;20036;-68
2022/11/10 08:01:02;;;;;;;19.95;7.55;;;13.90;99.20;;;;;;5092804;28;20055;-70
2022/11/10 08:03:28;;;;;;;24.58;6.65;;;14.00;99.20;;;;;;5092873;28;20489;-69
2022/11/10 08:05:55;;;;;;;23.02;7.53;;;14.00;99.10;;;;;;5092649;28;20016;-69
2022/11/10 08:08:20;;;;;;;26.15;6.75;;;14.10;99.20;;;;;;5091581;28;20040;-69
2022/11/10 08:10:46;;;;;;;25.67;6.93;;;14.10;99.20;;;;;;5091449;28;20028;-68
2022/11/10 08:13:13;;;;;;;18.48;5.88;;;14.10;99.00;;;;;;5091511;28;20034;-70
2022/11/10 08:15:39;;;;;;;14.90;6.40;;;14.20;99.00;;;;;;5091756;28;20103;-69
2022/11/10 08:18:14;;;;;;;22.08;6.90;;;14.10;99.10;;;;;;5091319;28;20077;-68
2022/11/10 08:20:41;;;;;;;26.20;6.80;;;14.10;99.00;;;;;;5073928;28;20424;-69
2022/11/10 08:23:07;;;;;;;26.00;7.18;;;14.20;98.90;;;;;;5091454;28;20029;-70
2022/11/10 08:25:34;;;;;;;19.88;6.55;;;14.10;99.30;;;;;;5091910;28;20028;-69
2022/11/10 08:28:08;;;;;;;27.30;7.50;;;14.00;99.10;;;;;;5091480;28;20028;-69
2022/11/10 08:30:36;;;;;;;24.42;7.30;;;14.10;99.20;;;;;;5093086;28;20032;-68
2022/11/10 08:33:03;;;;;;;;;;;14.20;99.00;;;;;;5091790;28;20028;-69
2022/11/10 08:35:31;;;;;;;24.17;7.33;;;14.20;99.10;;;;;;5073725;28;19904;-69
2022/11/10 08:37:57;;;;;;;25.52;7.03;;;14.20;99.10;;;;;;5090937;28;20077;-68
2022/11/10 08:40:26;;;;;;;27.65;7.55;;;14.20;99.00;;;;;;5090973;28;20478;-69
2022/11/10 08:43:06;;;;;;;18.92;6.88;;;14.30;98.80;;;;;;5090499;28;20477;-71
2022/11/10 08:45:33;;;;;;;17.80;7.18;;;14.20;99.00;;;;;;5091468;28;20373;-68
2022/11/10 08:48:11;;;;;;;24.63;8.20;;;14.10;99.20;;;;;;5072893;28;20081;-68
2022/11/10 08:50:37;;;;;;;19.95;7.07;;;14.20;99.00;;;;;;5073372;28;20028;-68
2022/11/10 08:53:07;;;;;;;26.30;7.60;;;14.20;98.90;;;;;;5072839;28;20080;-69
2022/11/10 08:55:33;;;;;;;20.17;7.68;;;14.10;98.90;;;;;;5072934;28;20032;-67
2022/11/10 08:58:00;;;;;;;22.05;7.57;;;14.20;99.00;;;;;;5092749;28;20040;-71
2022/11/10 09:00:29;;;;;;;20.80;7.60;;;14.30;98.80;;;;;;5077975;28;20032;-70
2022/11/10 09:02:56;;;;;;;20.38;6.93;;;14.30;98.60;;;;;;5093417;28;20025;-69
2022/11/10 09:05:22;;;;;;;18.90;7.10;;;14.30;98.70;;;;;;5090680;28;20535;-69
2022/11/10 09:07:49;;;;;;;22.83;6.88;;;14.40;98.60;;;;;;5072913;28;20048;-67
2022/11/10 09:10:15;;;;;;;22.27;7.28;;;14.20;98.80;;;;;;5090744;28;20093;-68
2022/11/10 09:12:42;;;;;;;23.98;6.70;;;14.30;98.80;;;;;;5090657;28;20404;-67
2022/11/10 09:15:09;;;;;;;25.75;6.50;;;14.40;98.40;;;;;;5090554;28;20024;-67
2022/11/10 09:17:36;;;;;;;22.92;6.93;;;14.50;98.50;;;;;;5090837;28;20032;-67
2022/11/10 09:20:03;;;;;;;19.92;5.97;;;14.50;98.30;;;;;;5072572;28;20024;-67
2022/11/10 09:22:29;;;;;;;21.15;7.07;;;14.60;98.20;;;;;;5090393;28;20385;-70
2022/11/10 09:24:55;;;;;;;17.38;5.50;;;14.70;98.20;;;;;;5091091;28;20470;-67
2022/11/10 09:27:20;;;;;;;17.15;4.75;;;14.70;97.80;;;;;;5072523;28;20460;-69
2022/11/10 09:29:46;;;;;;;18.15;5.60;;;14.70;97.80;;;;;;5091282;28;20030;-68
2022/11/10 09:32:12;;;;;;;19.13;5.85;;;14.80;97.70;;;;;;5090472;28;20442;-66
2022/11/10 09:34:37;;;;;;;16.63;5.55;;;15.00;97.60;;;;;;5090398;28;20059;-65
2022/11/10 09:37:03;;;;;;;14.95;5.13;;;15.00;97.40;;;;;;5072563;28;20404;-70
2022/11/10 09:39:29;;;;;;;15.10;4.45;;;15.30;97.40;;;;;;5090396;28;20060;-68
2022/11/10 09:41:54;;;;;;;19.23;5.65;;;15.30;97.20;;;;;;5090584;28;20424;-69
2022/11/10 09:44:36;;;;;;;14.23;5.32;;;15.30;96.90;;;;;;5072472;28;20044;-69
2022/11/10 09:47:22;;;;;;;26.35;5.10;;;15.30;97.00;;;;;;5072325;28;20028;-69
2022/11/10 09:49:53;;;;;;;18.95;4.55;;;15.50;97.00;;;;;;5072387;28;20032;-70
2022/11/10 09:52:22;;;;;;;16.35;4.85;;;15.50;96.50;;;;;;5090475;28;20115;-71
2022/11/10 09:55:03;;;;;;;18.42;4.50;;;15.50;96.30;;;;;;5075350;28;20213;-74
2022/11/10 09:57:29;;;;;;;19.42;4.70;;;15.70;96.30;;;;;;5093738;28;20032;-71
2022/11/10 09:59:55;;;;;;;15.10;4.65;;;15.80;96.20;;;;;;5076580;28;20035;-72
2022/11/10 10:02:29;;;;;;;13.18;4.55;;;15.90;96.20;;;;;;5094279;28;20675;-73
2022/11/10 10:05:13;;;;;;;14.63;3.95;;;16.00;95.90;;;;;;5094638;28;20100;-75
2022/11/10 10:08:09;;;;;;;15.18;4.50;;;15.80;95.40;;;;;;5094062;28;20031;-73
2022/11/10 10:10:35;;;;;;;18.48;5.13;;;15.80;95.90;;;;;;5075981;28;20123;-74
2022/11/10 10:13:19;;;;;;;19.02;3.97;;;15.70;95.40;;;;;;5076258;28;20119;-74
2022/11/10 10:16:19;;;;;;;13.82;3.80;;;15.90;95.50;;;;;;5075760;28;20055;-75
2022/11/10 10:19:22;;;;;;;15.57;3.55;;;15.70;95.50;;;;;;5093904;28;20116;-72
2022/11/10 10:22:05;;;;;;;16.83;3.70;;;16.00;95.70;;;;;;5029550;28;20036;-74
2022/11/10 10:24:32;;;;;;;10.73;3.20;;;16.10;95.40;;;;;;5093963;28;20028;-75
2022/11/10 10:27:02;;;;;;;22.13;5.25;;;16.70;95.60;;;;;;5094451;28;20119;-76
2022/11/10 10:29:44;;;;;;;15.18;3.50;;;17.40;94.50;;;;;;5093690;28;20036;-75
2022/11/10 10:32:12;;;;;;;25.67;3.92;;;18.00;94.20;;;;;;5075828;28;20044;-75
2022/11/10 10:34:40;;;;;;;12.63;3.13;;;18.50;93.60;;;;;;5075886;28;20411;-76
2022/11/10 10:37:37;;;;;;;16.17;3.55;;;19.30;92.40;;;;;;5093555;28;20063;-75
2022/11/10 10:40:03;;;;;;;;;;;20.10;92.40;;;;;;5093992;28;20046;-75
2022/11/10 10:42:29;;;;;;;15.27;2.75;;;20.60;91.10;;;;;;5093211;28;19928;-77
2022/11/10 10:45:14;;;;;;;17.85;3.20;;;20.90;90.40;;;;;;5093877;28;20027;-75
2022/11/10 10:47:40;;;;;;;14.93;2.92;;;20.70;89.20;;;;;;5075516;28;20032;-75
2022/11/10 10:50:33;;;;;;;22.17;3.40;;;20.90;90.40;;;;;;5075371;28;20063;-74
2022/11/10 10:53:13;;;;;;;10.68;2.53;;;20.70;89.50;;;;;;5093176;28;20406;-74
2022/11/10 10:55:58;;;;;;;17.98;3.25;;;21.30;90.50;;;;;;5075149;28;20032;-74
2022/11/10 10:58:29;;;;;;;14.77;3.03;;;22.00;89.80;;;;;;5097853;28;20124;-75
2022/11/10 11:01:00;;;;;;;15.90;2.92;;;22.80;88.30;;;;;;5092887;28;20043;-74
2022/11/10 11:03:29;;;;;;;15.35;3.45;;;22.70;85.60;;;;;;5092865;28;20028;-74
2022/11/10 11:06:20;;;;;;;11.32;2.95;;;22.90;83.20;;;;;;5092135;28;20051;-73
2022/11/10 11:09:05;;;;;;;15.48;2.72;;;23.10;81.90;;;;;;5062918;28;20135;-74
2022/11/10 11:11:36;;;;;;;14.88;2.60;;;22.90;82.60;;;;;;5075494;28;20036;-76
2022/11/10 11:14:23;;;;;;;18.42;3.40;;;22.60;84.80;;;;;;5092517;28;20102;-75
2022/11/10 11:16:58;;;;;;;12.13;3.17;;;23.10;80.90;;;;;;5074478;28;20420;-73
2022/11/10 11:19:34;;;;;;;16.95;2.65;;;21.30;82.60;;;;;;5075060;28;20590;-73
2022/11/10 11:22:34;;;;;;;22.52;3.03;;;22.30;85.10;;;;;;5092491;28;20110;-72
2022/11/10 11:25:08;;;;;;;17.05;3.45;;;22.30;82.90;;;;;;5074555;28;20052;-72
2022/11/10 11:27:52;;;;;;;16.10;2.70;;;22.20;80.90;;;;;;5092406;28;20032;-73
2022/11/10 11:30:23;;;;;;;10.50;3.03;;;22.40;81.50;;;;;;5074307;28;20028;-72
2022/11/10 11:32:49;;;;;;;17.92;2.60;;;22.30;81.10;;;;;;5092717;28;20024;-74
2022/11/10 11:35:49;;;;;;;16.67;3.50;;;22.00;81.90;;;;;;5091978;28;20032;-74
2022/11/10 11:38:53;;;;;;;18.27;3.10;;;22.00;81.40;;;;;;5074440;28;20035;-73
2022/11/10 11:41:48;;;;;;;13.15;2.53;;;21.40;81.20;;;;;;5074233;28;20044;-73
2022/11/10 11:44:23;;;;;;;16.17;2.35;;;21.10;82.80;;;;;;5092021;28;20481;-71
2022/11/10 11:47:27;;;;;;;13.65;2.58;;;20.40;83.20;;;;;;5073927;28;20119;-72
2022/11/10 11:50:12;;;;;;;15.93;2.50;;;20.60;83.80;;;;;;5036193;28;20153;-70
2022/11/10 11:53:14;;;;;;;11.90;1.88;;;20.80;83.10;;;;;;5073919;28;20422;-70
2022/11/10 11:55:45;;;;;;;19.85;2.42;;;20.10;83.50;;;;;;5091843;28;20039;-73
2022/11/10 11:58:23;;;;;;;12.68;2.50;;;19.50;85.10;;;;;;5091980;28;20039;-74
2022/11/10 12:01:00;;;;;;;14.07;2.30;;;19.30;85.60;;;;;;5073976;28;20035;-74
2022/11/10 12:03:35;;;;;;;13.80;2.63;;;19.30;86.20;;;;;;5073865;28;20036;-72
2022/11/10 12:06:12;;;;;;;14.23;2.45;;;19.20;86.50;;;;;;5092171;28;20036;-74
2022/11/10 12:09:03;;;;;;;10.23;1.98;;;19.00;87.30;;;;;;5092896;28;20012;-73
2022/11/10 12:12:07;;;;;;;17.33;2.92;;;18.40;88.60;;;;;;5091828;28;20496;-71
2022/11/10 12:14:51;;;;;;;14.93;3.40;;;18.40;88.50;;;;;;5091648;28;20450;-73
2022/11/10 12:17:40;;;;;;;13.60;2.42;;;18.40;88.40;;;;;;5090791;28;20118;-71
2022/11/10 12:20:28;;;;;;;13.52;2.70;;;18.50;89.30;;;;;;5073382;28;20028;-72
2022/11/10 12:23:00;;;;;;;10.52;2.00;;;18.50;88.70;;;;;;5072692;28;20327;-72
2022/11/10 12:26:09;;;;;;;14.50;2.28;;;18.20;89.90;;;;;;5091658;28;20035;-71
2022/11/10 12:28:44;;;;;;;16.10;2.20;;;18.20;90.10;;;;;;5011804;28;20093;-72
2022/11/10 12:31:16;;;;;;;15.50;2.90;;;18.10;90.40;;;;;;5091220;28;20469;-72
2022/11/10 12:33:54;;;;;;;10.43;2.90;;;17.90;90.60;;;;;;5091094;28;20024;-72
2022/11/10 12:36:21;;;;;;;16.10;3.30;;;18.20;90.40;;;;;;5090749;28;20036;-72
2022/11/10 12:39:07;;;;;;;12.05;2.33;;;18.20;90.30;;;;;;5073887;28;20024;-71
2022/11/10 12:41:48;;;;;;;14.30;2.00;;;18.20;90.50;;;;;;5090889;28;20374;-71
2022/11/10 12:44:44;;;;;;;14.85;2.90;;;17.90;90.70;;;;;;5073222;28;20028;-71
2022/11/10 12:47:16;;;;;;;15.10;3.28;;;18.20;90.60;;;;;;5090980;28;20043;-72
2022/11/10 12:49:54;;;;;;;14.68;2.20;;;18.20;90.40;;;;;;5090862;28;20493;-74
2022/11/10 12:52:54;;;;;;;12.45;2.30;;;18.30;90.30;;;;;;5090544;28;20123;-71
2022/11/10 12:55:35;;;;;;;12.02;2.00;;;18.00;90.50;;;;;;5072895;28;20040;-71
2022/11/10 12:58:04;;;;;;;10.43;2.15;;;17.90;90.70;;;;;;5090734;28;20319;-71
2022/11/10 13:00:36;;;;;;;15.02;3.13;;;17.90;90.50;;;;;;5073842;28;20032;-71
2022/11/10 13:03:02;;;;;;;39.17;16.52;;;17.80;90.70;;;;;;5091559;28;20020;-72
2022/11/10 13:05:28;;;;;;;37.00;14.35;;;17.90;91.00;;;;;;5091868;28;20494;-71